Terminal Aerodrome Forecast
Issued by NWS

Home | Current Version | Previous Version | Graphics & Text | Print | Product List | Glossary On
Versions: 1 2 3 4 5 6 7 8 9 10 11 12 13 14 15 16 17 18 19 20
000
FTUS41 KCLE 210500
TAFFDY
TAF
KFDY 210540Z 2106/2206 25015G22KT P6SM BKN060
     FM211300 25018G28KT P6SM SCT060
     FM211500 25025G35KT P6SM BKN060
     FM212300 25015KT P6SM VCSH BKN050=

USA.gov is the U.S. government's official web portal to all federal, state and local government web resources and services.